Yosemite National Park, California
Current Conditions -  °F | °C
As of 10:15 AM on Thursday 27 Nov 2014 (Local Time) from KMMH Reporting Station
Clear Clear  
Wind Chill: 48°   Ceiling: Unl
Heat Index: 48°   Visibility: 10mi
Dew Point: 16°   Wind: 3mph
Humidity: 27%   Direction: 140°SE
Pressure: 30.42"   Gusts: NA
Location:  37.6076°N, 119.603°W
Report Text: KMMH 271815Z AUTO 14003KT 10SM CLR 09/M09 A3042 RMK AO1
Loading
Personal Weather Stations






























Interactive Weather Map New forecast layout! Learn more

10-Day Weather Forecast

Advertisements
Track Severe Weather on mobile